sensor_id;sensor_type;location;lat;lon;timestamp;temperature;humidity
26037;DHT22;13810;48.376;10.944;2022-08-14T00:00:18;13.40;99.90
26037;DHT22;13810;48.376;10.944;2022-08-14T00:00:51;13.30;99.90
26037;DHT22;13810;48.376;10.944;2022-08-14T00:01:22;13.40;99.90
26037;DHT22;13810;48.376;10.944;2022-08-14T00:01:53;13.30;99.90
26037;DHT22;13810;48.376;10.944;2022-08-14T00:02:24;13.30;99.90
26037;DHT22;13810;48.376;10.944;2022-08-14T00:02:55;13.30;99.90
26037;DHT22;13810;48.376;10.944;2022-08-14T00:03:28;13.30;99.90
26037;DHT22;13810;48.376;10.944;2022-08-14T00:03:59;13.40;99.90
26037;DHT22;13810;48.376;10.944;2022-08-14T00:04:31;13.30;99.90
26037;DHT22;13810;48.376;10.944;2022-08-14T00:05:02;13.40;99.90
26037;DHT22;13810;48.376;10.944;2022-08-14T00:05:33;13.30;99.90
26037;DHT22;13810;48.376;10.944;2022-08-14T00:06:04;13.30;99.90
26037;DHT22;13810;48.376;10.944;2022-08-14T00:06:35;13.30;99.90
26037;DHT22;13810;48.376;10.944;2022-08-14T00:07:06;13.30;99.90
26037;DHT22;13810;48.376;10.944;2022-08-14T00:07:37;13.30;99.90
26037;DHT22;13810;48.376;10.944;2022-08-14T00:08:07;13.30;99.90
26037;DHT22;13810;48.376;10.944;2022-08-14T00:08:38;13.30;99.90
26037;DHT22;13810;48.376;10.944;2022-08-14T00:09:09;13.40;99.90
26037;DHT22;13810;48.376;10.944;2022-08-14T00:09:41;13.30;99.90
26037;DHT22;13810;48.376;10.944;2022-08-14T00:10:15;13.30;99.90
26037;DHT22;13810;48.376;10.944;2022-08-14T00:10:46;13.30;99.90
26037;DHT22;13810;48.376;10.944;2022-08-14T00:11:17;13.30;99.90
26037;DHT22;13810;48.376;10.944;2022-08-14T00:11:48;13.30;99.90
26037;DHT22;13810;48.376;10.944;2022-08-14T00:12:19;13.30;99.90
26037;DHT22;13810;48.376;10.944;2022-08-14T00:12:52;13.30;99.90
26037;DHT22;13810;48.376;10.944;2022-08-14T00:13:24;13.30;99.90
26037;DHT22;13810;48.376;10.944;2022-08-14T00:14:00;13.30;99.90
26037;DHT22;13810;48.376;10.944;2022-08-14T00:14:31;13.30;99.90
26037;DHT22;13810;48.376;10.944;2022-08-14T00:15:08;13.30;99.90
26037;DHT22;13810;48.376;10.944;2022-08-14T00:15:43;13.30;99.90
26037;DHT22;13810;48.376;10.944;2022-08-14T00:16:14;13.30;99.90
26037;DHT22;13810;48.376;10.944;2022-08-14T00:16:45;13.30;99.90
26037;DHT22;13810;48.376;10.944;2022-08-14T00:17:17;13.30;99.90
26037;DHT22;13810;48.376;10.944;2022-08-14T00:17:49;13.30;99.90
26037;DHT22;13810;48.376;10.944;2022-08-14T00:18:23;13.30;99.90
26037;DHT22;13810;48.376;10.944;2022-08-14T00:18:53;13.30;99.90
26037;DHT22;13810;48.376;10.944;2022-08-14T00:19:24;13.30;99.90
26037;DHT22;13810;48.376;10.944;2022-08-14T00:19:55;13.20;99.90
26037;DHT22;13810;48.376;10.944;2022-08-14T00:20:33;13.20;99.90
26037;DHT22;13810;48.376;10.944;2022-08-14T00:21:04;13.20;99.90
26037;DHT22;13810;48.376;10.944;2022-08-14T00:21:35;13.20;99.90
26037;DHT22;13810;48.376;10.944;2022-08-14T00:22:06;13.20;99.90
26037;DHT22;13810;48.376;10.944;2022-08-14T00:22:37;13.20;99.90
26037;DHT22;13810;48.376;10.944;2022-08-14T00:23:10;13.20;99.90
26037;DHT22;13810;48.376;10.944;2022-08-14T00:23:41;13.30;99.90
26037;DHT22;13810;48.376;10.944;2022-08-14T00:24:12;13.20;99.90
26037;DHT22;13810;48.376;10.944;2022-08-14T00:24:44;13.20;99.90
26037;DHT22;13810;48.376;10.944;2022-08-14T00:25:14;13.20;99.90
26037;DHT22;13810;48.376;10.944;2022-08-14T00:25:49;13.20;99.90
26037;DHT22;13810;48.376;10.944;2022-08-14T00:26:20;13.20;99.90
26037;DHT22;13810;48.376;10.944;2022-08-14T00:26:51;13.20;99.90
26037;DHT22;13810;48.376;10.944;2022-08-14T00:27:22;13.20;99.90
26037;DHT22;13810;48.376;10.944;2022-08-14T00:27:54;13.20;99.90
26037;DHT22;13810;48.376;10.944;2022-08-14T00:28:25;13.20;99.90
26037;DHT22;13810;48.376;10.944;2022-08-14T00:28:56;13.20;99.90
26037;DHT22;13810;48.376;10.944;2022-08-14T00:29:29;13.20;99.90
26037;DHT22;13810;48.376;10.944;2022-08-14T00:30:00;13.20;99.90
26037;DHT22;13810;48.376;10.944;2022-08-14T00:30:30;13.20;99.90
26037;DHT22;13810;48.376;10.944;2022-08-14T00:31:01;13.20;99.90
26037;DHT22;13810;48.376;10.944;2022-08-14T00:31:32;13.20;99.90
26037;DHT22;13810;48.376;10.944;2022-08-14T00:32:03;13.20;99.90
26037;DHT22;13810;48.376;10.944;2022-08-14T00:32:35;13.20;99.90
26037;DHT22;13810;48.376;10.944;2022-08-14T00:33:06;13.20;99.90
26037;DHT22;13810;48.376;10.944;2022-08-14T00:33:36;13.20;99.90
26037;DHT22;13810;48.376;10.944;2022-08-14T00:34:07;13.20;99.90
26037;DHT22;13810;48.376;10.944;2022-08-14T00:34:38;13.20;99.90
26037;DHT22;13810;48.376;10.944;2022-08-14T00:35:10;13.10;99.90
26037;DHT22;13810;48.376;10.944;2022-08-14T00:35:41;13.20;99.90
26037;DHT22;13810;48.376;10.944;2022-08-14T00:36:11;13.20;99.90
26037;DHT22;13810;48.376;10.944;2022-08-14T00:36:42;13.10;99.90
26037;DHT22;13810;48.376;10.944;2022-08-14T00:37:13;13.10;99.90
26037;DHT22;13810;48.376;10.944;2022-08-14T00:37:46;13.20;99.90
26037;DHT22;13810;48.376;10.944;2022-08-14T00:38:17;13.20;99.90
26037;DHT22;13810;48.376;10.944;2022-08-14T00:38:48;13.10;99.90
26037;DHT22;13810;48.376;10.944;2022-08-14T00:39:19;13.10;99.90
26037;DHT22;13810;48.376;10.944;2022-08-14T00:39:49;13.10;99.90
26037;DHT22;13810;48.376;10.944;2022-08-14T00:40:20;13.10;99.90
26037;DHT22;13810;48.376;10.944;2022-08-14T00:40:51;13.10;99.90
26037;DHT22;13810;48.376;10.944;2022-08-14T00:41:22;13.10;99.90
26037;DHT22;13810;48.376;10.944;2022-08-14T00:41:53;13.10;99.90
26037;DHT22;13810;48.376;10.944;2022-08-14T00:42:24;13.10;99.90
26037;DHT22;13810;48.376;10.944;2022-08-14T00:42:55;13.10;99.90
26037;DHT22;13810;48.376;10.944;2022-08-14T00:43:25;13.10;99.90
26037;DHT22;13810;48.376;10.944;2022-08-14T00:43:57;13.10;99.90
26037;DHT22;13810;48.376;10.944;2022-08-14T00:44:27;13.00;99.90
26037;DHT22;13810;48.376;10.944;2022-08-14T00:44:59;13.00;99.90
26037;DHT22;13810;48.376;10.944;2022-08-14T00:45:30;13.00;99.90
26037;DHT22;13810;48.376;10.944;2022-08-14T00:46:06;13.00;99.90
26037;DHT22;13810;48.376;10.944;2022-08-14T00:46:37;13.00;99.90
26037;DHT22;13810;48.376;10.944;2022-08-14T00:47:08;13.00;99.90
26037;DHT22;13810;48.376;10.944;2022-08-14T00:47:41;12.90;99.90
26037;DHT22;13810;48.376;10.944;2022-08-14T00:48:13;12.90;99.90
26037;DHT22;13810;48.376;10.944;2022-08-14T00:48:43;12.90;99.90
26037;DHT22;13810;48.376;10.944;2022-08-14T00:49:14;12.80;99.90
26037;DHT22;13810;48.376;10.944;2022-08-14T00:49:45;12.80;99.90
26037;DHT22;13810;48.376;10.944;2022-08-14T00:50:18;12.80;99.90
26037;DHT22;13810;48.376;10.944;2022-08-14T00:50:50;12.80;99.90
26037;DHT22;13810;48.376;10.944;2022-08-14T00:51:24;12.80;99.90
26037;DHT22;13810;48.376;10.944;2022-08-14T00:51:56;12.80;99.90
26037;DHT22;13810;48.376;10.944;2022-08-14T00:52:28;12.70;99.90
26037;DHT22;13810;48.376;10.944;2022-08-14T00:53:01;12.70;99.90
26037;DHT22;13810;48.376;10.944;2022-08-14T00:53:34;12.70;99.90
26037;DHT22;13810;48.376;10.944;2022-08-14T00:54:06;12.70;99.90
26037;DHT22;13810;48.376;10.944;2022-08-14T00:54:38;12.70;99.90
26037;DHT22;13810;48.376;10.944;2022-08-14T00:55:08;12.70;99.90
26037;DHT22;13810;48.376;10.944;2022-08-14T00:55:40;12.70;99.90
26037;DHT22;13810;48.376;10.944;2022-08-14T00:56:12;12.70;99.90
26037;DHT22;13810;48.376;10.944;2022-08-14T00:56:43;12.70;99.90
26037;DHT22;13810;48.376;10.944;2022-08-14T00:57:14;12.70;99.90
26037;DHT22;13810;48.376;10.944;2022-08-14T00:57:45;12.70;99.90
26037;DHT22;13810;48.376;10.944;2022-08-14T00:58:36;12.60;99.90
26037;DHT22;13810;48.376;10.944;2022-08-14T00:59:06;12.60;99.90
26037;DHT22;13810;48.376;10.944;2022-08-14T00:59:38;12.60;99.90
26037;DHT22;13810;48.376;10.944;2022-08-14T01:00:13;12.60;99.90
26037;DHT22;13810;48.376;10.944;2022-08-14T01:00:46;12.60;99.90
26037;DHT22;13810;48.376;10.944;2022-08-14T01:01:18;12.60;99.90
26037;DHT22;13810;48.376;10.944;2022-08-14T01:01:48;12.60;99.90
26037;DHT22;13810;48.376;10.944;2022-08-14T01:02:20;12.60;99.90
26037;DHT22;13810;48.376;10.944;2022-08-14T01:02:54;12.60;99.90
26037;DHT22;13810;48.376;10.944;2022-08-14T01:03:26;12.60;99.90
26037;DHT22;13810;48.376;10.944;2022-08-14T01:04:00;12.60;99.90
26037;DHT22;13810;48.376;10.944;2022-08-14T01:04:33;12.60;99.90
26037;DHT22;13810;48.376;10.944;2022-08-14T01:05:06;12.60;99.90
26037;DHT22;13810;48.376;10.944;2022-08-14T01:05:37;12.60;99.90
26037;DHT22;13810;48.376;10.944;2022-08-14T01:06:11;12.70;99.90
26037;DHT22;13810;48.376;10.944;2022-08-14T01:06:42;12.70;99.90
26037;DHT22;13810;48.376;10.944;2022-08-14T01:07:13;12.70;99.90
26037;DHT22;13810;48.376;10.944;2022-08-14T01:07:51;12.70;99.90
26037;DHT22;13810;48.376;10.944;2022-08-14T01:08:26;12.70;99.90
26037;DHT22;13810;48.376;10.944;2022-08-14T01:08:58;12.70;99.90
26037;DHT22;13810;48.376;10.944;2022-08-14T01:09:30;12.70;99.90
26037;DHT22;13810;48.376;10.944;2022-08-14T01:10:02;12.70;99.90
26037;DHT22;13810;48.376;10.944;2022-08-14T01:10:34;12.70;99.90
26037;DHT22;13810;48.376;10.944;2022-08-14T01:11:20;12.70;99.90
26037;DHT22;13810;48.376;10.944;2022-08-14T01:11:52;12.70;99.90
26037;DHT22;13810;48.376;10.944;2022-08-14T01:12:23;12.70;99.90
26037;DHT22;13810;48.376;10.944;2022-08-14T01:12:55;12.70;99.90
26037;DHT22;13810;48.376;10.944;2022-08-14T01:13:28;12.70;99.90
26037;DHT22;13810;48.376;10.944;2022-08-14T01:14:00;12.70;99.90
26037;DHT22;13810;48.376;10.944;2022-08-14T01:14:31;12.70;99.90
26037;DHT22;13810;48.376;10.944;2022-08-14T01:15:03;12.70;99.90
26037;DHT22;13810;48.376;10.944;2022-08-14T01:15:34;12.70;99.90
26037;DHT22;13810;48.376;10.944;2022-08-14T01:16:08;12.70;99.90
26037;DHT22;13810;48.376;10.944;2022-08-14T01:16:39;12.70;99.90
26037;DHT22;13810;48.376;10.944;2022-08-14T01:17:12;12.70;99.90
26037;DHT22;13810;48.376;10.944;2022-08-14T01:17:43;12.70;99.90
26037;DHT22;13810;48.376;10.944;2022-08-14T01:18:33;12.70;99.90
26037;DHT22;13810;48.376;10.944;2022-08-14T01:19:24;12.70;99.90
26037;DHT22;13810;48.376;10.944;2022-08-14T01:20:13;12.70;99.90
26037;DHT22;13810;48.376;10.944;2022-08-14T01:21:04;12.70;99.90
26037;DHT22;13810;48.376;10.944;2022-08-14T01:21:42;12.80;99.90
26037;DHT22;13810;48.376;10.944;2022-08-14T01:22:15;12.80;99.90
26037;DHT22;13810;48.376;10.944;2022-08-14T01:22:47;12.80;99.90
26037;DHT22;13810;48.376;10.944;2022-08-14T01:23:20;12.80;99.90
26037;DHT22;13810;48.376;10.944;2022-08-14T01:23:52;12.80;99.90
26037;DHT22;13810;48.376;10.944;2022-08-14T01:24:23;12.80;99.90
26037;DHT22;13810;48.376;10.944;2022-08-14T01:24:55;12.80;99.90
26037;DHT22;13810;48.376;10.944;2022-08-14T01:25:26;12.80;99.90
26037;DHT22;13810;48.376;10.944;2022-08-14T01:25:57;12.80;99.90
26037;DHT22;13810;48.376;10.944;2022-08-14T01:26:29;12.80;99.90
26037;DHT22;13810;48.376;10.944;2022-08-14T01:27:00;12.80;99.90
26037;DHT22;13810;48.376;10.944;2022-08-14T01:27:31;12.80;99.90
26037;DHT22;13810;48.376;10.944;2022-08-14T01:28:02;12.80;99.90
26037;DHT22;13810;48.376;10.944;2022-08-14T01:28:34;12.80;99.90
26037;DHT22;13810;48.376;10.944;2022-08-14T01:29:07;12.80;99.90
26037;DHT22;13810;48.376;10.944;2022-08-14T01:29:38;12.70;99.90
26037;DHT22;13810;48.376;10.944;2022-08-14T01:30:09;12.70;99.90
26037;DHT22;13810;48.376;10.944;2022-08-14T01:30:40;12.70;99.90
26037;DHT22;13810;48.376;10.944;2022-08-14T01:31:15;12.70;99.90
26037;DHT22;13810;48.376;10.944;2022-08-14T01:31:45;12.70;99.90
26037;DHT22;13810;48.376;10.944;2022-08-14T01:32:21;12.60;99.90
26037;DHT22;13810;48.376;10.944;2022-08-14T01:32:52;12.60;99.90
26037;DHT22;13810;48.376;10.944;2022-08-14T01:33:25;12.60;99.90
26037;DHT22;13810;48.376;10.944;2022-08-14T01:34:02;12.50;99.90
26037;DHT22;13810;48.376;10.944;2022-08-14T01:34:33;12.50;99.90
26037;DHT22;13810;48.376;10.944;2022-08-14T01:35:04;12.50;99.90
26037;DHT22;13810;48.376;10.944;2022-08-14T01:35:37;12.40;99.90
26037;DHT22;13810;48.376;10.944;2022-08-14T01:36:10;12.40;99.90
26037;DHT22;13810;48.376;10.944;2022-08-14T01:36:41;12.30;99.90
26037;DHT22;13810;48.376;10.944;2022-08-14T01:37:12;12.30;99.90
26037;DHT22;13810;48.376;10.944;2022-08-14T01:37:43;12.30;99.90
26037;DHT22;13810;48.376;10.944;2022-08-14T01:38:16;12.20;99.90
26037;DHT22;13810;48.376;10.944;2022-08-14T01:38:47;12.20;99.90
26037;DHT22;13810;48.376;10.944;2022-08-14T01:39:18;12.10;99.90
26037;DHT22;13810;48.376;10.944;2022-08-14T01:39:50;12.10;99.90
26037;DHT22;13810;48.376;10.944;2022-08-14T01:40:25;12.10;99.90
26037;DHT22;13810;48.376;10.944;2022-08-14T01:40:56;12.10;99.90
26037;DHT22;13810;48.376;10.944;2022-08-14T01:41:27;12.00;99.90
26037;DHT22;13810;48.376;10.944;2022-08-14T01:41:58;12.00;99.90
26037;DHT22;13810;48.376;10.944;2022-08-14T01:42:30;12.00;99.90
26037;DHT22;13810;48.376;10.944;2022-08-14T01:43:01;12.10;99.90
26037;DHT22;13810;48.376;10.944;2022-08-14T01:43:31;12.00;99.90
26037;DHT22;13810;48.376;10.944;2022-08-14T01:44:09;12.00;99.90
26037;DHT22;13810;48.376;10.944;2022-08-14T01:44:42;12.00;99.90
26037;DHT22;13810;48.376;10.944;2022-08-14T01:45:12;12.00;99.90
26037;DHT22;13810;48.376;10.944;2022-08-14T01:45:44;12.00;99.90
26037;DHT22;13810;48.376;10.944;2022-08-14T01:46:20;12.00;99.90
26037;DHT22;13810;48.376;10.944;2022-08-14T01:46:52;12.00;99.90
26037;DHT22;13810;48.376;10.944;2022-08-14T01:47:23;12.00;99.90
26037;DHT22;13810;48.376;10.944;2022-08-14T01:47:54;12.00;99.90
26037;DHT22;13810;48.376;10.944;2022-08-14T01:48:26;12.00;99.90
26037;DHT22;13810;48.376;10.944;2022-08-14T01:49:08;12.00;99.90
26037;DHT22;13810;48.376;10.944;2022-08-14T01:49:40;12.00;99.90
26037;DHT22;13810;48.376;10.944;2022-08-14T01:50:10;12.00;99.90
26037;DHT22;13810;48.376;10.944;2022-08-14T01:50:41;12.00;99.90
26037;DHT22;13810;48.376;10.944;2022-08-14T01:51:14;12.10;99.90
26037;DHT22;13810;48.376;10.944;2022-08-14T01:51:46;12.00;99.90
26037;DHT22;13810;48.376;10.944;2022-08-14T01:52:17;12.00;99.90
26037;DHT22;13810;48.376;10.944;2022-08-14T01:52:48;12.10;99.90
26037;DHT22;13810;48.376;10.944;2022-08-14T01:53:18;12.10;99.90
26037;DHT22;13810;48.376;10.944;2022-08-14T01:53:52;12.10;99.90
26037;DHT22;13810;48.376;10.944;2022-08-14T01:54:24;12.00;99.90
26037;DHT22;13810;48.376;10.944;2022-08-14T01:54:54;12.00;99.90
26037;DHT22;13810;48.376;10.944;2022-08-14T01:55:26;12.00;99.90
26037;DHT22;13810;48.376;10.944;2022-08-14T01:56:03;12.00;99.90
26037;DHT22;13810;48.376;10.944;2022-08-14T01:56:35;12.00;99.90
26037;DHT22;13810;48.376;10.944;2022-08-14T01:57:09;12.00;99.90
26037;DHT22;13810;48.376;10.944;2022-08-14T01:57:43;12.00;99.90
26037;DHT22;13810;48.376;10.944;2022-08-14T01:58:14;12.00;99.90
26037;DHT22;13810;48.376;10.944;2022-08-14T01:58:46;12.00;99.90
26037;DHT22;13810;48.376;10.944;2022-08-14T01:59:26;12.00;99.90
26037;DHT22;13810;48.376;10.944;2022-08-14T02:00:05;12.00;99.90
26037;DHT22;13810;48.376;10.944;2022-08-14T02:00:38;12.00;99.90
26037;DHT22;13810;48.376;10.944;2022-08-14T02:01:09;12.00;99.90
26037;DHT22;13810;48.376;10.944;2022-08-14T02:01:40;12.00;99.90
26037;DHT22;13810;48.376;10.944;2022-08-14T02:02:11;12.00;99.90
26037;DHT22;13810;48.376;10.944;2022-08-14T02:02:44;12.00;99.90
26037;DHT22;13810;48.376;10.944;2022-08-14T02:03:15;11.90;99.90
26037;DHT22;13810;48.376;10.944;2022-08-14T02:03:46;12.00;99.90
26037;DHT22;13810;48.376;10.944;2022-08-14T02:04:23;11.90;99.90
26037;DHT22;13810;48.376;10.944;2022-08-14T02:04:54;11.90;99.90
26037;DHT22;13810;48.376;10.944;2022-08-14T02:05:25;11.90;99.90
26037;DHT22;13810;48.376;10.944;2022-08-14T02:06:01;12.00;99.90
26037;DHT22;13810;48.376;10.944;2022-08-14T02:06:32;11.90;99.90
26037;DHT22;13810;48.376;10.944;2022-08-14T02:07:05;11.90;99.90
26037;DHT22;13810;48.376;10.944;2022-08-14T02:07:36;11.90;99.90
26037;DHT22;13810;48.376;10.944;2022-08-14T02:08:07;11.90;99.90
26037;DHT22;13810;48.376;10.944;2022-08-14T02:08:39;11.90;99.90
26037;DHT22;13810;48.376;10.944;2022-08-14T02:09:10;11.90;99.90
26037;DHT22;13810;48.376;10.944;2022-08-14T02:09:41;11.80;99.90
26037;DHT22;13810;48.376;10.944;2022-08-14T02:10:12;11.90;99.90
26037;DHT22;13810;48.376;10.944;2022-08-14T02:10:43;11.90;99.90
26037;DHT22;13810;48.376;10.944;2022-08-14T02:11:14;11.90;99.90
26037;DHT22;13810;48.376;10.944;2022-08-14T02:11:54;11.90;99.90
26037;DHT22;13810;48.376;10.944;2022-08-14T02:12:25;11.90;99.90
26037;DHT22;13810;48.376;10.944;2022-08-14T02:12:56;11.80;99.90
26037;DHT22;13810;48.376;10.944;2022-08-14T02:13:27;11.90;99.90
26037;DHT22;13810;48.376;10.944;2022-08-14T02:14:01;11.80;99.90
26037;DHT22;13810;48.376;10.944;2022-08-14T02:14:33;11.80;99.90
26037;DHT22;13810;48.376;10.944;2022-08-14T02:15:05;11.90;99.90
26037;DHT22;13810;48.376;10.944;2022-08-14T02:15:37;11.90;99.90
26037;DHT22;13810;48.376;10.944;2022-08-14T02:16:10;11.80;99.90
26037;DHT22;13810;48.376;10.944;2022-08-14T02:16:46;11.80;99.90
26037;DHT22;13810;48.376;10.944;2022-08-14T02:17:18;11.80;99.90
26037;DHT22;13810;48.376;10.944;2022-08-14T02:17:52;11.80;99.90
26037;DHT22;13810;48.376;10.944;2022-08-14T02:18:23;11.90;99.90
26037;DHT22;13810;48.376;10.944;2022-08-14T02:18:59;11.90;99.90
26037;DHT22;13810;48.376;10.944;2022-08-14T02:19:31;11.90;99.90
26037;DHT22;13810;48.376;10.944;2022-08-14T02:20:03;11.80;99.90
26037;DHT22;13810;48.376;10.944;2022-08-14T02:20:33;11.90;99.90
26037;DHT22;13810;48.376;10.944;2022-08-14T02:21:05;11.90;99.90
26037;DHT22;13810;48.376;10.944;2022-08-14T02:21:37;11.90;99.90
26037;DHT22;13810;48.376;10.944;2022-08-14T02:22:09;11.90;99.90
26037;DHT22;13810;48.376;10.944;2022-08-14T02:22:39;11.90;99.90
26037;DHT22;13810;48.376;10.944;2022-08-14T02:23:10;11.90;99.90
26037;DHT22;13810;48.376;10.944;2022-08-14T02:23:41;11.90;99.90
26037;DHT22;13810;48.376;10.944;2022-08-14T02:24:13;11.90;99.90
26037;DHT22;13810;48.376;10.944;2022-08-14T02:24:44;11.90;99.90
26037;DHT22;13810;48.376;10.944;2022-08-14T02:25:15;11.90;99.90
26037;DHT22;13810;48.376;10.944;2022-08-14T02:25:46;11.90;99.90
26037;DHT22;13810;48.376;10.944;2022-08-14T02:26:22;11.90;99.90
26037;DHT22;13810;48.376;10.944;2022-08-14T02:26:53;11.90;99.90
26037;DHT22;13810;48.376;10.944;2022-08-14T02:27:25;11.90;99.90
26037;DHT22;13810;48.376;10.944;2022-08-14T02:27:58;11.90;99.90
26037;DHT22;13810;48.376;10.944;2022-08-14T02:28:29;11.90;99.90
26037;DHT22;13810;48.376;10.944;2022-08-14T02:29:07;11.90;99.90
26037;DHT22;13810;48.376;10.944;2022-08-14T02:29:39;11.90;99.90
26037;DHT22;13810;48.376;10.944;2022-08-14T02:30:11;11.90;99.90
26037;DHT22;13810;48.376;10.944;2022-08-14T02:30:42;11.90;99.90
26037;DHT22;13810;48.376;10.944;2022-08-14T02:31:14;11.90;99.90
26037;DHT22;13810;48.376;10.944;2022-08-14T02:31:46;11.90;99.90
26037;DHT22;13810;48.376;10.944;2022-08-14T02:32:18;11.90;99.90
26037;DHT22;13810;48.376;10.944;2022-08-14T02:32:51;11.90;99.90
26037;DHT22;13810;48.376;10.944;2022-08-14T02:33:22;11.90;99.90
26037;DHT22;13810;48.376;10.944;2022-08-14T02:33:52;11.90;99.90
26037;DHT22;13810;48.376;10.944;2022-08-14T02:34:35;11.90;99.90
26037;DHT22;13810;48.376;10.944;2022-08-14T02:35:08;12.00;99.90
26037;DHT22;13810;48.376;10.944;2022-08-14T02:35:48;11.90;99.90
26037;DHT22;13810;48.376;10.944;2022-08-14T02:36:19;12.00;99.90
26037;DHT22;13810;48.376;10.944;2022-08-14T02:36:51;12.00;99.90
26037;DHT22;13810;48.376;10.944;2022-08-14T02:37:22;11.90;99.90
26037;DHT22;13810;48.376;10.944;2022-08-14T02:37:53;11.90;99.90
26037;DHT22;13810;48.376;10.944;2022-08-14T02:38:24;11.90;99.90
26037;DHT22;13810;48.376;10.944;2022-08-14T02:38:56;11.90;99.90
26037;DHT22;13810;48.376;10.944;2022-08-14T02:39:28;11.90;99.90
26037;DHT22;13810;48.376;10.944;2022-08-14T02:39:59;11.90;99.90
26037;DHT22;13810;48.376;10.944;2022-08-14T02:40:31;11.90;99.90
26037;DHT22;13810;48.376;10.944;2022-08-14T02:41:04;11.90;99.90
26037;DHT22;13810;48.376;10.944;2022-08-14T02:41:39;11.90;99.90
26037;DHT22;13810;48.376;10.944;2022-08-14T02:42:15;11.90;99.90
26037;DHT22;13810;48.376;10.944;2022-08-14T02:42:47;11.90;99.90
26037;DHT22;13810;48.376;10.944;2022-08-14T02:43:18;11.90;99.90
26037;DHT22;13810;48.376;10.944;2022-08-14T02:43:50;11.90;99.90
26037;DHT22;13810;48.376;10.944;2022-08-14T02:44:21;11.90;99.90
26037;DHT22;13810;48.376;10.944;2022-08-14T02:44:52;11.90;99.90
26037;DHT22;13810;48.376;10.944;2022-08-14T02:45:26;11.90;99.90
26037;DHT22;13810;48.376;10.944;2022-08-14T02:46:03;11.90;99.90
26037;DHT22;13810;48.376;10.944;2022-08-14T02:46:39;11.80;99.90
26037;DHT22;13810;48.376;10.944;2022-08-14T02:47:14;11.80;99.90
26037;DHT22;13810;48.376;10.944;2022-08-14T02:47:45;11.80;99.90
26037;DHT22;13810;48.376;10.944;2022-08-14T02:48:15;11.80;99.90
26037;DHT22;13810;48.376;10.944;2022-08-14T02:48:46;11.80;99.90
26037;DHT22;13810;48.376;10.944;2022-08-14T02:49:17;11.80;99.90
26037;DHT22;13810;48.376;10.944;2022-08-14T02:49:56;11.80;99.90
26037;DHT22;13810;48.376;10.944;2022-08-14T02:50:27;11.80;99.90
26037;DHT22;13810;48.376;10.944;2022-08-14T02:50:59;11.80;99.90
26037;DHT22;13810;48.376;10.944;2022-08-14T02:51:29;11.70;99.90
26037;DHT22;13810;48.376;10.944;2022-08-14T02:52:00;11.70;99.90
26037;DHT22;13810;48.376;10.944;2022-08-14T02:52:31;11.70;99.90
26037;DHT22;13810;48.376;10.944;2022-08-14T02:53:03;11.70;99.90
26037;DHT22;13810;48.376;10.944;2022-08-14T02:53:34;11.70;99.90
26037;DHT22;13810;48.376;10.944;2022-08-14T02:54:07;11.70;99.90
26037;DHT22;13810;48.376;10.944;2022-08-14T02:54:39;11.70;99.90
26037;DHT22;13810;48.376;10.944;2022-08-14T02:55:09;11.70;99.90
26037;DHT22;13810;48.376;10.944;2022-08-14T02:55:42;11.70;99.90
26037;DHT22;13810;48.376;10.944;2022-08-14T02:56:15;11.70;99.90
26037;DHT22;13810;48.376;10.944;2022-08-14T02:56:46;11.70;99.90
26037;DHT22;13810;48.376;10.944;2022-08-14T02:57:17;11.70;99.90
26037;DHT22;13810;48.376;10.944;2022-08-14T02:57:49;11.70;99.90
26037;DHT22;13810;48.376;10.944;2022-08-14T02:58:24;11.70;99.90
26037;DHT22;13810;48.376;10.944;2022-08-14T02:58:56;11.60;99.90
26037;DHT22;13810;48.376;10.944;2022-08-14T02:59:28;11.70;99.90
26037;DHT22;13810;48.376;10.944;2022-08-14T03:00:00;11.60;99.90
26037;DHT22;13810;48.376;10.944;2022-08-14T03:00:34;11.60;99.90
26037;DHT22;13810;48.376;10.944;2022-08-14T03:01:09;11.60;99.90
26037;DHT22;13810;48.376;10.944;2022-08-14T03:01:39;11.60;99.90
26037;DHT22;13810;48.376;10.944;2022-08-14T03:02:10;11.60;99.90
26037;DHT22;13810;48.376;10.944;2022-08-14T03:02:42;11.60;99.90
26037;DHT22;13810;48.376;10.944;2022-08-14T03:03:13;11.60;99.90
26037;DHT22;13810;48.376;10.944;2022-08-14T03:03:47;11.60;99.90
26037;DHT22;13810;48.376;10.944;2022-08-14T03:04:17;11.60;99.90
26037;DHT22;13810;48.376;10.944;2022-08-14T03:04:48;11.60;99.90
26037;DHT22;13810;48.376;10.944;2022-08-14T03:05:19;11.60;99.90
26037;DHT22;13810;48.376;10.944;2022-08-14T03:05:52;11.60;99.90
26037;DHT22;13810;48.376;10.944;2022-08-14T03:06:23;11.50;99.90
26037;DHT22;13810;48.376;10.944;2022-08-14T03:06:55;11.50;99.90
26037;DHT22;13810;48.376;10.944;2022-08-14T03:07:26;11.50;99.90
26037;DHT22;13810;48.376;10.944;2022-08-14T03:08:11;11.50;99.90
26037;DHT22;13810;48.376;10.944;2022-08-14T03:08:42;11.50;99.90
26037;DHT22;13810;48.376;10.944;2022-08-14T03:09:13;11.50;99.90
26037;DHT22;13810;48.376;10.944;2022-08-14T03:09:44;11.40;99.90
26037;DHT22;13810;48.376;10.944;2022-08-14T03:10:14;11.40;99.90
26037;DHT22;13810;48.376;10.944;2022-08-14T03:10:46;11.40;99.90
26037;DHT22;13810;48.376;10.944;2022-08-14T03:11:17;11.40;99.90
26037;DHT22;13810;48.376;10.944;2022-08-14T03:11:49;11.40;99.90
26037;DHT22;13810;48.376;10.944;2022-08-14T03:12:20;11.40;99.90
26037;DHT22;13810;48.376;10.944;2022-08-14T03:12:51;11.40;99.90
26037;DHT22;13810;48.376;10.944;2022-08-14T03:13:22;11.40;99.90
26037;DHT22;13810;48.376;10.944;2022-08-14T03:13:52;11.40;99.90
26037;DHT22;13810;48.376;10.944;2022-08-14T03:14:23;11.40;99.90
26037;DHT22;13810;48.376;10.944;2022-08-14T03:14:55;11.40;99.90
26037;DHT22;13810;48.376;10.944;2022-08-14T03:15:26;11.40;99.90
26037;DHT22;13810;48.376;10.944;2022-08-14T03:15:57;11.40;99.90
26037;DHT22;13810;48.376;10.944;2022-08-14T03:16:27;11.40;99.90
26037;DHT22;13810;48.376;10.944;2022-08-14T03:17:05;11.40;99.90
26037;DHT22;13810;48.376;10.944;2022-08-14T03:17:39;11.40;99.90
26037;DHT22;13810;48.376;10.944;2022-08-14T03:18:12;11.40;99.90
26037;DHT22;13810;48.376;10.944;2022-08-14T03:18:46;11.40;99.90
26037;DHT22;13810;48.376;10.944;2022-08-14T03:19:16;11.40;99.90
26037;DHT22;13810;48.376;10.944;2022-08-14T03:19:47;11.30;99.90
26037;DHT22;13810;48.376;10.944;2022-08-14T03:20:19;11.30;99.90
26037;DHT22;13810;48.376;10.944;2022-08-14T03:20:50;11.30;99.90
26037;DHT22;13810;48.376;10.944;2022-08-14T03:21:22;11.30;99.90